Granby, Connecticut
Current Conditions -  °F | °C
As of 2:51 PM on Saturday 20 Dec 2014 (Local Time) from KBDL Reporting Station
Light Snow Light Snow  
Wind Chill: 25°   Ceiling: 2800
Heat Index: 31°   Visibility: 9mi
Dew Point: 19°   Wind: 6mph
Humidity: 61%   Direction: 360°N
Pressure: 30.25"   Gusts: NA
Location:  41.95°N, 72.79°W
Report Text: KBDL 201951Z 36005KT 9SM -SN BKN028 M01/M07 A3025 RMK AO2 SNB41 SLP245 P0000 T10061072 $
Loading
Personal Weather Stations






























Interactive Weather Map New forecast layout! Learn more

10-Day Weather Forecast

Advertisements
Track Severe Weather on mobile